Time;durP1;ratioP1;P1;durP2;ratioP2;P2;SDS_P1;SDS_P2;PMS_P1;PMS_P2;Temp;Humidity;BMP_temperature;BMP_pressure;BME280_temperature;BME280_humidity;BME280_pressure;Samples;Min_cycle;Max_cycle;Signal;HPM_P1;HPM_P2
2022/12/22 03:26:28;;;;;;;3.25;1.70;;;;;;;;;;5051508;28;20045;-61
2022/12/22 03:28:54;;;;;;;2.55;1.38;;;;;;;;;;5054468;28;20048;-61
2022/12/22 03:31:20;;;;;;;5.82;1.35;;;;;;;;;;5054336;28;20041;-60
2022/12/22 03:33:47;;;;;;;5.22;1.73;;;;;;;;;;5054452;28;20045;-60
2022/12/22 03:36:13;;;;;;;3.40;1.40;;;;;;;;;;5053922;28;20052;-60
2022/12/22 03:38:39;;;;;;;3.72;1.70;;;;;;;;;;5054306;28;20049;-60
2022/12/22 03:41:06;;;;;;;1.55;1.10;;;;;;;;;;5054239;28;20105;-60
2022/12/22 03:46:29;;;;;;;4.20;1.33;;;;;;;;;;5054281;28;20083;-61
2022/12/22 03:49:11;;;;;;;2.90;1.55;;;;;;;;;;5054627;28;20409;-61
2022/12/22 03:51:39;;;;;;;5.10;1.40;;;;;;;;;;5054732;28;20049;-61
2022/12/22 03:54:06;;;;;;;2.38;1.25;;;;;;;;;;5054711;28;20049;-62
2022/12/22 03:56:32;;;;;;;3.25;1.10;;;;;;;;;;5054129;28;20447;-61
2022/12/22 03:58:59;;;;;;;2.40;1.10;;;;;;;;;;5052940;28;20049;-61
2022/12/22 04:01:25;;;;;;;6.10;1.13;;;;;;;;;;5054761;28;20041;-61
2022/12/22 04:03:52;;;;;;;2.22;1.00;;;;;;;;;;5053077;28;20404;-61
2022/12/22 04:06:18;;;;;;;2.17;1.10;;;;;;;;;;5053842;28;20051;-61
2022/12/22 04:08:45;;;;;;;1.17;0.90;;;;;;;;;;5054248;28;20120;-62
2022/12/22 04:13:57;;;;;;;0.95;0.85;;;;;;;;;;5054405;28;20052;-61
2022/12/22 04:16:24;;;;;;;2.75;0.93;;;;;;;;;;5053590;28;20099;-61
2022/12/22 04:18:51;;;;;;;1.67;1.00;;;;;;;;;;5054127;28;20055;-61
2022/12/22 04:21:17;;;;;;;3.10;1.23;;;;;;;;;;5054668;28;20428;-61
2022/12/22 04:23:44;;;;;;;2.72;1.13;;;;;;;;;;5054430;28;20045;-61
2022/12/22 04:26:10;;;;;;;3.20;0.88;;;;;;;;;;5053966;28;20037;-60
2022/12/22 04:28:36;;;;;;;1.58;0.95;;;;;;;;;;5054371;28;20091;-60
2022/12/22 04:31:03;;;;;;;1.48;0.93;;;;;;;;;;5053307;28;20080;-61
2022/12/22 04:33:29;;;;;;;2.30;0.68;;;;;;;;;;5054263;28;20041;-60
2022/12/22 04:35:56;;;;;;;2.40;0.85;;;;;;;;;;5053780;28;20140;-61
2022/12/22 04:38:22;;;;;;;2.13;0.90;;;;;;;;;;5052772;28;20044;-61
2022/12/22 04:40:48;;;;;;;3.42;1.05;;;;;;;;;;5053628;28;20099;-60
2022/12/22 04:43:15;;;;;;;1.85;0.82;;;;;;;;;;5053833;28;20044;-61
2022/12/22 04:45:42;;;;;;;1.75;0.80;;;;;;;;;;5053107;28;20037;-61
2022/12/22 04:48:09;;;;;;;3.28;1.00;;;;;;;;;;5052472;28;20045;-60
2022/12/22 04:50:35;;;;;;;5.57;1.55;;;;;;;;;;5052447;28;20037;-61
2022/12/22 04:53:01;;;;;;;2.28;0.93;;;;;;;;;;5053547;28;20041;-61
2022/12/22 04:55:28;;;;;;;1.15;0.95;;;;;;;;;;5053088;28;20110;-61
2022/12/22 04:57:54;;;;;;;3.75;1.10;;;;;;;;;;5053622;28;20041;-61
2022/12/22 05:03:09;;;;;;;4.00;1.00;;;;;;;;;;5089000;23;20525;-61
2022/12/22 05:05:36;;;;;;;2.63;1.23;;;;;;;;;;4916627;29;20055;-60
2022/12/22 05:08:02;;;;;;;2.35;1.10;;;;;;;;;;4900330;29;20051;-59
2022/12/22 05:10:29;;;;;;;4.53;1.45;;;;;;;;;;4900209;29;20051;-59
2022/12/22 05:12:55;;;;;;;3.03;0.90;;;;;;;;;;4917033;29;20047;-62
2022/12/22 05:15:26;;;;;;;2.70;1.00;;;;;;;;;;4916761;29;20457;-60
2022/12/22 05:17:52;;;;;;;3.38;1.33;;;;;;;;;;4916830;29;20489;-59
2022/12/22 05:20:19;;;;;;;1.83;1.05;;;;;;;;;;4917095;29;20425;-60
2022/12/22 05:22:46;;;;;;;2.45;1.13;;;;;;;;;;4899945;29;20048;-61
2022/12/22 05:25:15;;;;;;;4.20;2.00;;;;;;;;;;4883872;29;20393;-61
2022/12/22 05:27:42;;;;;;;3.88;1.33;;;;;;;;;;4900128;29;20050;-58
2022/12/22 05:30:09;;;;;;;6.45;1.60;;;;;;;;;;4899861;29;20048;-60
2022/12/22 05:32:35;;;;;;;2.72;1.10;;;;;;;;;;4916423;29;20461;-60
2022/12/22 05:35:02;;;;;;;2.92;1.20;;;;;;;;;;4899717;29;20451;-61
2022/12/22 05:37:28;;;;;;;6.13;1.30;;;;;;;;;;4899560;29;20059;-62
2022/12/22 05:39:55;;;;;;;5.95;1.75;;;;;;;;;;4916602;29;20044;-61
2022/12/22 05:42:36;;;;;;;6.72;2.28;;;;;;;;;;4916408;29;20047;-60
2022/12/22 05:45:14;;;;;;;6.78;1.83;;;;;;;;;;4915943;29;20565;-61
2022/12/22 05:47:44;;;;;;;2.80;1.30;;;;;;;;;;4916483;29;20079;-62
2022/12/22 05:50:12;;;;;;;3.17;1.55;;;;;;;;;;4916012;29;20043;-60
2022/12/22 05:52:39;;;;;;;3.92;1.25;;;;;;;;;;4916222;29;20047;-61
2022/12/22 05:55:05;;;;;;;4.25;1.70;;;;;;;;;;4915806;29;20096;-61
2022/12/22 05:57:32;;;;;;;4.32;1.90;;;;;;;;;;4899560;29;20047;-60
2022/12/22 05:59:58;;;;;;;4.68;1.55;;;;;;;;;;4916195;29;20051;-59
2022/12/22 06:02:25;;;;;;;4.18;1.30;;;;;;;;;;4915985;29;20502;-59
2022/12/22 06:04:51;;;;;;;3.35;1.23;;;;;;;;;;4916305;29;20381;-60
2022/12/22 06:07:18;;;;;;;4.80;1.23;;;;;;;;;;4915557;29;20071;-60
2022/12/22 06:09:44;;;;;;;2.22;1.10;;;;;;;;;;4916127;29;20100;-60
2022/12/22 06:12:10;;;;;;;6.05;1.30;;;;;;;;;;4898864;29;20139;-59
2022/12/22 06:14:37;;;;;;;3.38;1.52;;;;;;;;;;4916171;29;20350;-59
2022/12/22 06:17:03;;;;;;;4.95;1.42;;;;;;;;;;4915499;29;20048;-61
2022/12/22 06:19:30;;;;;;;3.15;1.10;;;;;;;;;;4899257;29;20412;-60
2022/12/22 06:21:56;;;;;;;3.83;1.52;;;;;;;;;;4898816;29;20517;-59
2022/12/22 06:24:22;;;;;;;4.18;1.65;;;;;;;;;;4915874;29;20092;-59
2022/12/22 06:26:49;;;;;;;5.13;1.90;;;;;;;;;;4915376;29;20112;-60
2022/12/22 06:29:15;;;;;;;6.25;1.73;;;;;;;;;;4898979;29;20048;-60
2022/12/22 06:31:41;;;;;;;5.00;1.60;;;;;;;;;;4915752;29;20104;-61
2022/12/22 06:34:09;;;;;;;6.20;1.88;;;;;;;;;;4915785;29;20047;-61
2022/12/22 06:36:35;;;;;;;4.68;1.58;;;;;;;;;;4915438;29;20044;-60
2022/12/22 06:39:02;;;;;;;4.03;1.65;;;;;;;;;;4898776;29;20060;-61
2022/12/22 06:44:13;;;;;;;3.47;1.70;;;;;;;;;;4915822;29;20041;-60
2022/12/22 06:46:40;;;;;;;3.20;1.60;;;;;;;;;;4915031;29;20052;-60
2022/12/22 06:49:06;;;;;;;4.57;1.25;;;;;;;;;;4898676;29;20048;-61
2022/12/22 06:51:33;;;;;;;5.40;1.50;;;;;;;;;;4915545;29;20511;-61
2022/12/22 06:53:59;;;;;;;4.35;1.30;;;;;;;;;;4898921;29;20104;-61
2022/12/22 06:56:26;;;;;;;5.70;1.88;;;;;;;;;;4915130;29;20404;-60
2022/12/22 06:58:53;;;;;;;2.88;1.50;;;;;;;;;;4915711;29;20468;-62
2022/12/22 07:01:19;;;;;;;4.80;1.30;;;;;;;;;;4916058;29;20052;-61
2022/12/22 07:03:46;;;;;;;4.05;1.25;;;;;;;;;;4919625;29;20040;-59
2022/12/22 07:06:12;;;;;;;7.68;2.17;;;;;;;;;;4918978;29;20063;-59
2022/12/22 07:08:39;;;;;;;7.05;1.83;;;;;;;;;;4919382;29;20052;-61
2022/12/22 07:11:05;;;;;;;6.82;2.20;;;;;;;;;;4919963;29;20461;-60
2022/12/22 07:13:33;;;;;;;5.93;1.55;;;;;;;;;;4902552;29;20075;-61
2022/12/22 07:16:00;;;;;;;7.70;1.77;;;;;;;;;;4918604;29;20039;-62
2022/12/22 07:18:28;;;;;;;8.75;1.92;;;;;;;;;;4919203;29;20064;-62
2022/12/22 07:20:54;;;;;;;7.00;2.45;;;;;;;;;;4943135;23;20050;-62
2022/12/22 07:23:21;;;;;;;7.43;2.50;;;;;;;;;;4939627;29;20048;-62
2022/12/22 07:25:47;;;;;;;7.55;2.00;;;;;;;;;;4938922;29;20043;-62
2022/12/22 07:28:14;;;;;;;7.50;2.30;;;;;;;;;;4939986;29;20075;-61
2022/12/22 07:30:47;;;;;;;9.38;2.83;;;;;;;;;;4926563;29;20055;-63
2022/12/22 07:33:13;;;;;;;7.97;1.73;;;;;;;;;;4920351;29;20044;-63
2022/12/22 07:35:39;;;;;;;7.47;1.85;;;;;;;;;;4920127;29;20127;-63
2022/12/22 07:38:06;;;;;;;8.93;1.90;;;;;;;;;;4920334;29;20048;-63
2022/12/22 07:40:32;;;;;;;9.45;2.72;;;;;;;;;;4919941;29;20080;-63
2022/12/22 07:43:06;;;;;;;12.10;2.30;;;;;;;;;;4904237;29;20044;-62
2022/12/22 07:45:33;;;;;;;8.25;2.45;;;;;;;;;;4921765;29;20044;-63
2022/12/22 07:48:00;;;;;;;11.10;3.00;;;;;;;;;;4904273;29;20048;-62
2022/12/22 07:50:27;;;;;;;6.90;1.98;;;;;;;;;;4921162;29;20044;-63
2022/12/22 07:52:58;;;;;;;10.82;2.55;;;;;;;;;;4920532;29;20130;-62
2022/12/22 07:55:25;;;;;;;7.68;2.45;;;;;;;;;;4920209;29;20055;-62
2022/12/22 07:57:52;;;;;;;10.65;2.30;;;;;;;;;;4920328;29;20044;-63
2022/12/22 08:00:18;;;;;;;8.40;2.50;;;;;;;;;;4919655;29;20107;-63
2022/12/22 08:02:49;;;;;;;10.60;2.28;;;;;;;;;;4920300;29;20040;-63
2022/12/22 08:05:16;;;;;;;12.30;2.60;;;;;;;;;;4902416;29;20048;-62
2022/12/22 08:07:43;;;;;;;9.75;2.55;;;;;;;;;;4919507;29;20048;-62
2022/12/22 08:10:10;;;;;;;9.98;2.45;;;;;;;;;;4919424;29;20048;-62
2022/12/22 08:12:37;;;;;;;10.63;2.58;;;;;;;;;;4919063;29;20051;-62
2022/12/22 08:15:04;;;;;;;7.57;2.65;;;;;;;;;;4902433;29;20048;-62
2022/12/22 08:17:30;;;;;;;11.63;2.85;;;;;;;;;;4918498;29;20044;-62
2022/12/22 08:19:57;;;;;;;11.23;2.72;;;;;;;;;;4918398;29;20056;-62
2022/12/22 08:22:24;;;;;;;9.63;3.35;;;;;;;;;;4901410;29;20040;-62
2022/12/22 08:24:51;;;;;;;8.10;2.20;;;;;;;;;;4919062;29;20131;-62
2022/12/22 08:27:20;;;;;;;10.90;3.13;;;;;;;;;;4900651;29;20112;-62
2022/12/22 08:29:54;;;;;;;10.93;2.58;;;;;;;;;;4918179;29;20060;-62
2022/12/22 08:32:20;;;;;;;9.73;2.60;;;;;;;;;;4917997;29;20059;-62
2022/12/22 08:34:49;;;;;;;7.78;2.47;;;;;;;;;;4901306;29;20048;-62
2022/12/22 08:37:17;;;;;;;10.23;3.08;;;;;;;;;;4917505;29;20044;-62
2022/12/22 08:39:45;;;;;;;9.77;2.30;;;;;;;;;;4917897;29;20052;-62
2022/12/22 08:42:13;;;;;;;5.90;2.28;;;;;;;;;;4918050;29;20044;-62
2022/12/22 08:44:39;;;;;;;11.75;2.50;;;;;;;;;;4900888;29;20056;-61
2022/12/22 08:47:06;;;;;;;7.18;1.95;;;;;;;;;;4927096;29;20047;-62
2022/12/22 08:49:42;;;;;;;8.55;2.05;;;;;;;;;;4926855;29;20048;-63
2022/12/22 08:52:08;;;;;;;6.97;1.85;;;;;;;;;;4919156;29;20104;-63
2022/12/22 08:54:43;;;;;;;8.65;1.90;;;;;;;;;;4918244;29;20048;-62
2022/12/22 08:57:09;;;;;;;7.47;1.80;;;;;;;;;;4916913;29;20071;-62
2022/12/22 08:59:36;;;;;;;7.10;1.70;;;;;;;;;;4917663;29;20048;-62
2022/12/22 09:02:04;;;;;;;4.10;1.77;;;;;;;;;;4918063;29;20517;-63
2022/12/22 09:04:32;;;;;;;6.60;1.67;;;;;;;;;;4917950;29;20044;-63
2022/12/22 09:06:59;;;;;;;6.13;1.75;;;;;;;;;;4900435;29;20044;-63
2022/12/22 09:09:25;;;;;;;8.85;2.17;;;;;;;;;;4917715;29;20076;-63
2022/12/22 09:11:51;;;;;;;6.93;1.90;;;;;;;;;;4917536;29;20059;-63
2022/12/22 09:14:18;;;;;;;4.43;1.52;;;;;;;;;;4901008;29;20056;-63
2022/12/22 09:16:44;;;;;;;3.67;1.20;;;;;;;;;;4917252;29;20064;-63
2022/12/22 09:19:11;;;;;;;2.97;1.80;;;;;;;;;;4917346;29;20120;-63
2022/12/22 09:21:37;;;;;;;5.78;1.25;;;;;;;;;;4884973;29;20048;-63
2022/12/22 09:24:06;;;;;;;2.10;0.90;;;;;;;;;;4916418;29;20044;-62
2022/12/22 09:26:33;;;;;;;2.25;0.80;;;;;;;;;;4916419;29;20519;-61
2022/12/22 09:28:59;;;;;;;4.75;1.77;;;;;;;;;;4917121;29;20096;-60
2022/12/22 09:31:26;;;;;;;3.38;1.10;;;;;;;;;;4916935;29;20099;-60
2022/12/22 09:33:53;;;;;;;2.47;1.20;;;;;;;;;;4900090;29;20545;-60
2022/12/22 09:36:21;;;;;;;2.70;0.98;;;;;;;;;;4916257;29;20096;-62
2022/12/22 09:38:48;;;;;;;2.47;1.23;;;;;;;;;;4916725;29;20059;-61
2022/12/22 09:41:34;;;;;;;1.95;0.88;;;;;;;;;;4916567;29;20165;-60
2022/12/22 09:44:05;;;;;;;2.03;1.00;;;;;;;;;;4916587;29;20549;-60
2022/12/22 09:46:33;;;;;;;1.30;0.60;;;;;;;;;;4916370;29;20052;-60
2022/12/22 09:48:59;;;;;;;2.80;1.25;;;;;;;;;;4916800;29;20044;-59
2022/12/22 09:51:27;;;;;;;3.78;0.90;;;;;;;;;;4917266;29;20052;-61
2022/12/22 09:53:55;;;;;;;1.75;0.88;;;;;;;;;;4916582;29;20527;-59
2022/12/22 09:56:22;;;;;;;3.03;1.10;;;;;;;;;;4915917;29;20048;-61
2022/12/22 09:58:49;;;;;;;2.42;1.10;;;;;;;;;;4916649;29;20055;-60
2022/12/22 10:01:18;;;;;;;2.53;0.70;;;;;;;;;;4916407;29;20052;-61
2022/12/22 10:03:49;;;;;;;1.70;0.80;;;;;;;;;;4916291;29;20082;-60
2022/12/22 10:06:43;;;;;;;3.13;0.82;;;;;;;;;;4915821;29;20100;-60
2022/12/22 10:09:30;;;;;;;2.05;0.77;;;;;;;;;;4883767;29;20048;-60
2022/12/22 10:12:24;;;;;;;1.05;0.80;;;;;;;;;;4916117;29;20048;-61
2022/12/22 10:14:52;;;;;;;4.35;1.05;;;;;;;;;;4899825;29;20449;-61
2022/12/22 10:17:24;;;;;;;2.05;0.98;;;;;;;;;;4915781;29;20039;-59
2022/12/22 10:19:52;;;;;;;3.60;1.08;;;;;;;;;;4916042;29;20408;-61
2022/12/22 10:22:18;;;;;;;3.92;0.90;;;;;;;;;;4916033;29;20063;-60
2022/12/22 10:24:45;;;;;;;1.42;0.75;;;;;;;;;;4915913;29;20047;-61
2022/12/22 10:27:12;;;;;;;1.30;0.75;;;;;;;;;;4915720;29;20079;-61
2022/12/22 10:29:39;;;;;;;3.58;0.70;;;;;;;;;;4916006;29;20040;-59
2022/12/22 10:32:13;;;;;;;3.30;0.90;;;;;;;;;;4915918;29;20044;-61
2022/12/22 10:34:58;;;;;;;2.72;0.77;;;;;;;;;;4916130;29;20056;-63
2022/12/22 10:37:29;;;;;;;2.95;1.17;;;;;;;;;;4915680;29;20060;-62
2022/12/22 10:39:55;;;;;;;1.63;0.88;;;;;;;;;;4915937;29;20051;-63
2022/12/22 10:42:22;;;;;;;1.77;1.13;;;;;;;;;;4915767;29;20104;-62
2022/12/22 10:44:49;;;;;;;2.17;1.17;;;;;;;;;;4915886;29;20036;-64
2022/12/22 10:47:19;;;;;;;2.28;0.90;;;;;;;;;;4915286;29;20543;-62
2022/12/22 10:49:46;;;;;;;3.05;1.00;;;;;;;;;;4898883;29;20053;-63
2022/12/22 10:52:15;;;;;;;1.17;0.50;;;;;;;;;;4915761;29;20040;-62
2022/12/22 10:54:43;;;;;;;4.22;0.80;;;;;;;;;;4898963;29;20096;-63
2022/12/22 10:57:13;;;;;;;2.17;0.70;;;;;;;;;;4915370;29;20078;-62
2022/12/22 10:59:53;;;;;;;1.90;0.77;;;;;;;;;;4915786;29;20282;-62
2022/12/22 11:02:19;;;;;;;1.70;1.00;;;;;;;;;;4915563;29;20084;-62
2022/12/22 11:04:46;;;;;;;1.00;0.75;;;;;;;;;;4915773;29;20040;-62
2022/12/22 11:07:13;;;;;;;1.70;0.70;;;;;;;;;;4915106;29;20044;-62
2022/12/22 11:09:40;;;;;;;0.98;0.82;;;;;;;;;;4898817;29;20091;-63
2022/12/22 11:12:22;;;;;;;0.88;0.75;;;;;;;;;;4915794;29;20429;-61
2022/12/22 11:14:55;;;;;;;1.10;0.70;;;;;;;;;;4915553;29;20052;-63
2022/12/22 11:17:37;;;;;;;1.40;0.80;;;;;;;;;;4915538;29;20045;-63
2022/12/22 11:20:22;;;;;;;2.60;0.70;;;;;;;;;;4915387;29;20040;-62
2022/12/22 11:22:56;;;;;;;0.85;0.60;;;;;;;;;;4915524;29;20040;-63
2022/12/22 11:25:22;;;;;;;;;;;;;;;;;;4915244;29;20048;-63
2022/12/22 11:28:01;;;;;;;2.17;0.73;;;;;;;;;;4915528;29;19923;-63
2022/12/22 11:30:38;;;;;;;2.20;0.70;;;;;;;;;;4915533;29;20048;-63
2022/12/22 11:33:14;;;;;;;0.93;0.73;;;;;;;;;;4915597;29;20308;-63
2022/12/22 11:35:52;;;;;;;0.70;0.68;;;;;;;;;;4915001;29;20532;-63
2022/12/22 11:38:32;;;;;;;0.63;0.50;;;;;;;;;;4898459;29;20056;-61
2022/12/22 11:41:01;;;;;;;3.30;0.82;;;;;;;;;;4915486;29;20052;-62
2022/12/22 11:43:33;;;;;;;0.60;0.60;;;;;;;;;;4915366;29;20050;-62
2022/12/22 11:46:13;;;;;;;1.63;0.77;;;;;;;;;;4897998;29;20044;-62
2022/12/22 11:48:51;;;;;;;1.92;0.70;;;;;;;;;;4901432;29;20044;-61
2022/12/22 11:51:24;;;;;;;1.05;0.57;;;;;;;;;;4918865;29;20404;-62
2022/12/22 11:54:03;;;;;;;0.63;0.63;;;;;;;;;;4919017;29;20428;-62
2022/12/22 11:56:43;;;;;;;0.70;0.70;;;;;;;;;;4902233;29;20457;-62
2022/12/22 11:59:21;;;;;;;0.82;0.77;;;;;;;;;;4919365;29;20206;-62
2022/12/22 12:01:55;;;;;;;1.23;0.60;;;;;;;;;;4918974;29;20044;-62
2022/12/22 12:04:27;;;;;;;0.98;0.80;;;;;;;;;;4919220;29;20055;-61
2022/12/22 12:06:57;;;;;;;0.80;0.80;;;;;;;;;;4918131;29;20044;-62
2022/12/22 12:09:29;;;;;;;1.05;0.70;;;;;;;;;;4918388;29;20041;-61
2022/12/22 12:12:08;;;;;;;0.52;0.52;;;;;;;;;;4901716;29;20044;-62
2022/12/22 12:14:41;;;;;;;0.60;0.60;;;;;;;;;;4918449;29;20107;-62
2022/12/22 12:17:19;;;;;;;0.75;0.70;;;;;;;;;;4917928;29;20048;-63
2022/12/22 12:19:49;;;;;;;4.50;1.05;;;;;;;;;;4918268;29;20051;-60
2022/12/22 12:22:25;;;;;;;2.80;1.10;;;;;;;;;;4901176;29;20312;-61
2022/12/22 12:25:10;;;;;;;2.50;1.20;;;;;;;;;;4901651;29;20048;-63
2022/12/22 12:27:36;;;;;;;2.53;1.50;;;;;;;;;;4901338;29;20048;-62
2022/12/22 12:30:19;;;;;;;2.15;1.55;;;;;;;;;;4918374;29;20044;-62
2022/12/22 12:33:24;;;;;;;2.20;0.95;;;;;;;;;;4918022;29;20056;-62
2022/12/22 12:36:10;;;;;;;1.10;1.00;;;;;;;;;;4917566;29;20040;-62
2022/12/22 12:38:55;;;;;;;1.98;0.88;;;;;;;;;;4900687;29;20124;-63
2022/12/22 12:41:36;;;;;;;2.22;1.00;;;;;;;;;;4918088;29;20040;-62
2022/12/22 12:44:04;;;;;;;1.58;1.20;;;;;;;;;;4901086;29;20390;-62
2022/12/22 12:46:49;;;;;;;2.25;1.17;;;;;;;;;;4917677;29;20044;-62
2022/12/22 12:49:34;;;;;;;0.85;0.85;;;;;;;;;;4902424;29;20442;-62
2022/12/22 12:52:02;;;;;;;2.13;1.30;;;;;;;;;;4913181;29;20495;-62
2022/12/22 12:54:28;;;;;;;1.42;0.90;;;;;;;;;;4927519;29;20073;-63
2022/12/22 12:56:59;;;;;;;3.05;0.93;;;;;;;;;;4923860;29;20056;-62
2022/12/22 12:59:38;;;;;;;2.15;1.10;;;;;;;;;;4918720;29;20429;-61
2022/12/22 13:02:24;;;;;;;3.30;1.17;;;;;;;;;;4900919;29;20052;-64
2022/12/22 13:05:06;;;;;;;1.30;1.20;;;;;;;;;;4917841;29;20147;-62
2022/12/22 13:07:52;;;;;;;2.22;0.98;;;;;;;;;;4901052;29;20544;-63
2022/12/22 13:10:20;;;;;;;1.95;1.40;;;;;;;;;;4900669;29;20047;-63
2022/12/22 13:12:52;;;;;;;2.65;1.20;;;;;;;;;;4917459;29;20126;-63
2022/12/22 13:15:31;;;;;;;1.50;1.20;;;;;;;;;;4917284;29;20078;-63
2022/12/22 13:17:58;;;;;;;1.23;0.85;;;;;;;;;;4917150;29;20063;-63
2022/12/22 13:20:32;;;;;;;1.67;1.10;;;;;;;;;;4917742;29;20461;-62
2022/12/22 13:23:00;;;;;;;1.95;1.15;;;;;;;;;;4917398;29;20441;-62
2022/12/22 13:25:51;;;;;;;1.25;0.90;;;;;;;;;;4917085;29;20123;-62
2022/12/22 13:28:19;;;;;;;2.50;0.98;;;;;;;;;;4910606;29;20060;-62
2022/12/22 13:31:04;;;;;;;0.93;0.82;;;;;;;;;;4917426;29;20040;-63
2022/12/22 13:33:35;;;;;;;1.63;1.02;;;;;;;;;;4917466;29;20463;-61
2022/12/22 13:36:03;;;;;;;2.42;1.40;;;;;;;;;;4899671;29;20465;-61
2022/12/22 13:38:31;;;;;;;1.35;1.05;;;;;;;;;;4916873;29;20449;-62
2022/12/22 13:40:59;;;;;;;0.98;0.80;;;;;;;;;;4884625;29;20056;-62
2022/12/22 13:43:27;;;;;;;0.93;0.70;;;;;;;;;;4916997;29;20044;-63
2022/12/22 13:45:55;;;;;;;1.10;1.00;;;;;;;;;;4916646;29;20409;-63
2022/12/22 13:48:27;;;;;;;2.78;1.02;;;;;;;;;;4917336;29;20043;-64
2022/12/22 13:50:56;;;;;;;2.50;1.08;;;;;;;;;;4917009;29;20056;-62
2022/12/22 13:53:31;;;;;;;3.22;1.20;;;;;;;;;;4917185;29;20366;-63
2022/12/22 13:56:25;;;;;;;2.58;1.05;;;;;;;;;;4899633;29;20079;-64
2022/12/22 13:58:51;;;;;;;;;;;;;;;;;;4918459;29;20059;-64
2022/12/22 14:01:18;;;;;;;2.38;0.93;;;;;;;;;;4917278;29;20308;-63
2022/12/22 14:03:49;;;;;;;3.42;1.33;;;;;;;;;;4917502;29;20050;-62
2022/12/22 14:06:30;;;;;;;2.50;1.45;;;;;;;;;;4899672;29;20126;-63
2022/12/22 14:09:09;;;;;;;1.98;1.60;;;;;;;;;;4917078;29;20051;-62
2022/12/22 14:11:35;;;;;;;3.85;1.30;;;;;;;;;;4916558;29;20048;-61
2022/12/22 14:14:06;;;;;;;2.33;1.20;;;;;;;;;;4917060;29;20048;-62
2022/12/22 14:16:32;;;;;;;3.47;1.80;;;;;;;;;;4916070;29;20063;-61
2022/12/22 14:18:58;;;;;;;2.53;1.33;;;;;;;;;;4916654;29;20056;-63
2022/12/22 14:21:25;;;;;;;5.35;3.03;;;;;;;;;;4916600;29;20139;-63
2022/12/22 14:23:52;;;;;;;4.15;2.10;;;;;;;;;;4899701;29;20205;-63
2022/12/22 14:26:22;;;;;;;6.00;1.95;;;;;;;;;;4916144;29;20036;-64
2022/12/22 14:28:52;;;;;;;2.20;1.38;;;;;;;;;;4916444;29;20107;-64
2022/12/22 14:31:18;;;;;;;1.73;1.08;;;;;;;;;;4916599;29;20048;-62
2022/12/22 14:34:04;;;;;;;1.58;1.00;;;;;;;;;;4899787;29;20055;-63
2022/12/22 14:36:37;;;;;;;2.55;1.25;;;;;;;;;;4916828;29;20076;-63
2022/12/22 14:39:09;;;;;;;2.42;1.58;;;;;;;;;;4917012;29;20055;-63
2022/12/22 14:41:45;;;;;;;2.70;1.38;;;;;;;;;;4916518;29;20501;-63
2022/12/22 14:44:12;;;;;;;2.80;1.30;;;;;;;;;;4916969;29;20517;-62
2022/12/22 14:46:39;;;;;;;1.98;1.20;;;;;;;;;;4916273;29;20044;-62
2022/12/22 14:49:10;;;;;;;2.70;1.40;;;;;;;;;;4916688;29;20127;-63
2022/12/22 14:51:37;;;;;;;4.47;1.30;;;;;;;;;;4917007;29;20455;-62
2022/12/22 14:54:03;;;;;;;1.27;1.17;;;;;;;;;;4917130;29;20055;-62
2022/12/22 14:56:30;;;;;;;2.97;1.83;;;;;;;;;;4899488;29;20051;-62
2022/12/22 14:59:07;;;;;;;2.70;1.75;;;;;;;;;;4916902;29;20099;-62
2022/12/22 15:01:33;;;;;;;1.98;1.33;;;;;;;;;;4916636;29;20051;-62
2022/12/22 15:04:03;;;;;;;1.00;0.90;;;;;;;;;;4916644;29;20103;-62
2022/12/22 15:06:30;;;;;;;2.90;1.20;;;;;;;;;;4916223;29;20489;-62
2022/12/22 15:09:03;;;;;;;1.90;1.15;;;;;;;;;;4898981;29;20049;-64
2022/12/22 15:11:33;;;;;;;2.17;1.20;;;;;;;;;;4899524;29;20076;-63
2022/12/22 15:14:00;;;;;;;5.07;1.55;;;;;;;;;;4915872;29;20052;-63
2022/12/22 15:16:26;;;;;;;5.40;2.53;;;;;;;;;;4915194;29;20485;-62
2022/12/22 15:18:53;;;;;;;16.95;2.95;;;;;;;;;;4916198;29;20512;-64
2022/12/22 15:21:19;;;;;;;11.80;3.70;;;;;;;;;;4898859;29;20254;-63
2022/12/22 15:23:46;;;;;;;15.40;4.15;;;;;;;;;;4918297;29;20044;-62
2022/12/22 15:26:12;;;;;;;16.23;3.90;;;;;;;;;;4901996;29;20108;-63
2022/12/22 15:28:38;;;;;;;23.17;4.70;;;;;;;;;;4919302;29;20509;-63
2022/12/22 15:31:10;;;;;;;21.73;4.68;;;;;;;;;;4919124;29;20560;-63
2022/12/22 15:33:36;;;;;;;17.38;3.83;;;;;;;;;;4919477;29;20099;-64
2022/12/22 15:36:04;;;;;;;23.63;5.50;;;;;;;;;;4918534;29;20104;-64
2022/12/22 15:38:31;;;;;;;20.08;4.80;;;;;;;;;;4902199;29;20044;-63
2022/12/22 15:41:04;;;;;;;24.35;5.05;;;;;;;;;;4919052;29;20048;-62
2022/12/22 15:43:30;;;;;;;20.23;4.72;;;;;;;;;;4918899;29;20414;-63
2022/12/22 15:46:17;;;;;;;23.02;5.68;;;;;;;;;;4901245;29;20119;-65
2022/12/22 15:48:44;;;;;;;23.40;5.72;;;;;;;;;;4918931;29;20561;-63
2022/12/22 15:51:19;;;;;;;19.75;5.25;;;;;;;;;;4918841;29;20040;-63
2022/12/22 15:53:46;;;;;;;30.80;8.68;;;;;;;;;;4918781;29;20493;-64
2022/12/22 15:56:16;;;;;;;50.20;16.38;;;;;;;;;;4901496;29;20470;-62
2022/12/22 15:58:43;;;;;;;32.15;8.60;;;;;;;;;;4902646;29;20114;-62
2022/12/22 16:01:10;;;;;;;29.92;9.60;;;;;;;;;;4919121;29;20123;-62
2022/12/22 16:03:37;;;;;;;31.38;6.32;;;;;;;;;;4919105;29;20051;-62
2022/12/22 16:06:05;;;;;;;31.52;6.10;;;;;;;;;;4919276;29;20516;-62
2022/12/22 16:08:36;;;;;;;30.02;6.47;;;;;;;;;;4919151;29;20394;-62
2022/12/22 16:11:04;;;;;;;29.75;5.18;;;;;;;;;;4918890;29;20063;-62
2022/12/22 16:13:30;;;;;;;32.33;6.13;;;;;;;;;;4918959;29;20040;-61
2022/12/22 16:15:57;;;;;;;24.33;5.50;;;;;;;;;;4918526;29;20044;-62
2022/12/22 16:18:23;;;;;;;31.08;6.38;;;;;;;;;;4918628;29;20046;-63
2022/12/22 16:20:50;;;;;;;28.50;5.80;;;;;;;;;;4901585;29;20445;-63
2022/12/22 16:23:18;;;;;;;26.38;7.13;;;;;;;;;;4918730;29;20051;-61
2022/12/22 16:25:45;;;;;;;27.33;7.75;;;;;;;;;;4918353;29;20095;-61
2022/12/22 16:28:14;;;;;;;27.55;6.03;;;;;;;;;;4919054;29;20044;-62
2022/12/22 16:30:40;;;;;;;34.08;6.97;;;;;;;;;;4901536;29;20461;-60
2022/12/22 16:33:09;;;;;;;26.00;6.20;;;;;;;;;;4918446;29;20067;-61
2022/12/22 16:35:36;;;;;;;36.92;8.65;;;;;;;;;;4900964;29;20055;-63
2022/12/22 16:38:02;;;;;;;21.83;6.85;;;;;;;;;;4918080;29;20116;-62
2022/12/22 16:40:29;;;;;;;34.22;6.90;;;;;;;;;;4918022;29;20040;-62
2022/12/22 16:42:56;;;;;;;38.55;7.20;;;;;;;;;;4917987;29;20044;-62
2022/12/22 16:45:42;;;;;;;266.65;66.78;;;;;;;;;;4917400;29;20032;-62
2022/12/22 16:48:19;;;;;;;70.32;19.70;;;;;;;;;;4917819;29;20055;-61
2022/12/22 16:50:46;;;;;;;29.33;9.82;;;;;;;;;;4901165;29;20080;-62
2022/12/22 16:53:13;;;;;;;33.35;8.60;;;;;;;;;;4918173;29;20048;-62
2022/12/22 16:55:40;;;;;;;39.35;8.90;;;;;;;;;;4900947;29;20055;-62
2022/12/22 16:58:08;;;;;;;34.30;7.80;;;;;;;;;;4917908;29;20048;-62
2022/12/22 17:00:40;;;;;;;36.58;8.90;;;;;;;;;;4917683;29;20145;-62
2022/12/22 17:03:21;;;;;;;42.50;10.43;;;;;;;;;;4900791;29;20058;-65
2022/12/22 17:05:50;;;;;;;29.38;10.07;;;;;;;;;;4917739;29;20064;-63
2022/12/22 17:08:19;;;;;;;37.35;9.10;;;;;;;;;;4913559;29;20470;-63
2022/12/22 17:10:46;;;;;;;34.08;8.93;;;;;;;;;;4929072;29;20040;-62
2022/12/22 17:13:12;;;;;;;29.92;7.03;;;;;;;;;;4923630;29;20413;-63
2022/12/22 17:15:39;;;;;;;25.50;6.82;;;;;;;;;;4917587;29;20060;-62
2022/12/22 17:18:12;;;;;;;32.08;7.72;;;;;;;;;;4917626;29;20047;-62
2022/12/22 17:20:39;;;;;;;26.38;7.78;;;;;;;;;;4900740;29;20048;-62
2022/12/22 17:23:05;;;;;;;26.45;7.45;;;;;;;;;;4917500;29;20044;-62
2022/12/22 17:25:32;;;;;;;29.23;7.70;;;;;;;;;;4899851;29;20564;-62
2022/12/22 17:28:00;;;;;;;32.15;8.20;;;;;;;;;;4917559;29;20047;-61
2022/12/22 17:30:27;;;;;;;31.05;7.65;;;;;;;;;;4917042;29;20040;-63
2022/12/22 17:32:53;;;;;;;40.08;7.18;;;;;;;;;;4917238;29;20414;-63
2022/12/22 17:35:22;;;;;;;30.58;7.30;;;;;;;;;;4916499;29;20090;-62
2022/12/22 17:37:49;;;;;;;25.55;6.10;;;;;;;;;;4917293;29;20048;-64
2022/12/22 17:40:25;;;;;;;28.63;5.97;;;;;;;;;;4917035;29;20084;-62
2022/12/22 17:42:52;;;;;;;33.47;7.05;;;;;;;;;;4900294;29;20497;-63
2022/12/22 17:45:19;;;;;;;32.03;6.82;;;;;;;;;;4899121;29;20055;-64
2022/12/22 17:47:46;;;;;;;31.15;6.60;;;;;;;;;;4900382;29;20044;-63
2022/12/22 17:50:14;;;;;;;32.17;7.03;;;;;;;;;;4916889;29;20040;-64
2022/12/22 17:52:41;;;;;;;25.45;5.65;;;;;;;;;;4916664;29;20051;-63
2022/12/22 17:55:22;;;;;;;28.63;6.93;;;;;;;;;;4916108;29;20564;-63
2022/12/22 17:58:12;;;;;;;29.27;6.03;;;;;;;;;;4916779;29;20437;-64
2022/12/22 18:00:38;;;;;;;34.25;6.13;;;;;;;;;;4899869;29;20055;-64
2022/12/22 18:03:05;;;;;;;40.47;13.73;;;;;;;;;;4916556;29;20052;-63
2022/12/22 18:05:37;;;;;;;27.65;6.35;;;;;;;;;;4916002;29;20040;-64
2022/12/22 18:08:03;;;;;;;26.73;6.35;;;;;;;;;;4916683;29;20083;-64
2022/12/22 18:10:31;;;;;;;27.70;5.40;;;;;;;;;;4916534;29;20051;-65
2022/12/22 18:12:58;;;;;;;24.45;5.68;;;;;;;;;;4899567;29;20052;-63
2022/12/22 18:15:26;;;;;;;28.45;6.05;;;;;;;;;;4898946;29;20096;-63
2022/12/22 18:17:53;;;;;;;27.65;5.80;;;;;;;;;;4916259;29;20108;-63
2022/12/22 18:20:20;;;;;;;24.00;6.55;;;;;;;;;;4916533;29;20044;-63
2022/12/22 18:22:50;;;;;;;27.40;5.32;;;;;;;;;;4916977;29;20051;-62
2022/12/22 18:25:21;;;;;;;20.63;5.35;;;;;;;;;;4916560;29;20275;-62
2022/12/22 18:27:48;;;;;;;23.42;5.53;;;;;;;;;;4899979;29;20044;-61
2022/12/22 18:30:18;;;;;;;19.10;4.38;;;;;;;;;;4916843;29;20044;-61
2022/12/22 18:32:45;;;;;;;14.98;4.22;;;;;;;;;;4917574;29;20040;-63